sensor_id;sensor_type;location;lat;lon;timestamp;P1;durP1;ratioP1;P2;durP2;ratioP2
8171;SDS011;4127;47.908;10.850;2022-09-12T06:22:33;1.30;;;1.30;;
8171;SDS011;4127;47.908;10.850;2022-09-12T06:31:58;1.70;;;1.60;;
8171;SDS011;4127;47.908;10.850;2022-09-12T06:34:28;2.20;;;1.83;;
8171;SDS011;4127;47.908;10.850;2022-09-12T06:37:24;1.50;;;1.40;;
8171;SDS011;4127;47.908;10.850;2022-09-12T06:43:47;1.50;;;1.40;;
8171;SDS011;4127;47.908;10.850;2022-09-12T06:46:15;1.97;;;1.80;;
8171;SDS011;4127;47.908;10.850;2022-09-12T06:48:44;1.70;;;1.60;;
8171;SDS011;4127;47.908;10.850;2022-09-12T10:14:58;2.13;;;1.30;;
8171;SDS011;4127;47.908;10.850;2022-09-12T10:24:25;1.20;;;1.20;;
8171;SDS011;4127;47.908;10.850;2022-09-12T10:27:08;1.13;;;1.13;;
8171;SDS011;4127;47.908;10.850;2022-09-12T10:29:39;1.23;;;0.97;;
8171;SDS011;4127;47.908;10.850;2022-09-12T10:32:10;0.90;;;0.90;;
8171;SDS011;4127;47.908;10.850;2022-09-12T10:34:45;1.07;;;1.07;;
8171;SDS011;4127;47.908;10.850;2022-09-12T10:39:51;1.93;;;1.13;;
8171;SDS011;4127;47.908;10.850;2022-09-12T10:45:57;0.93;;;0.93;;
8171;SDS011;4127;47.908;10.850;2022-09-12T10:48:36;0.97;;;0.97;;
8171;SDS011;4127;47.908;10.850;2022-09-12T10:51:03;0.90;;;0.90;;
8171;SDS011;4127;47.908;10.850;2022-09-12T10:53:31;1.10;;;1.10;;
8171;SDS011;4127;47.908;10.850;2022-09-12T10:56:07;0.90;;;0.90;;
8171;SDS011;4127;47.908;10.850;2022-09-12T11:01:09;1.07;;;1.07;;
8171;SDS011;4127;47.908;10.850;2022-09-12T11:06:37;1.10;;;1.10;;
8171;SDS011;4127;47.908;10.850;2022-09-12T11:15:09;1.10;;;1.00;;
8171;SDS011;4127;47.908;10.850;2022-09-12T11:18:10;1.75;;;1.20;;
8171;SDS011;4127;47.908;10.850;2022-09-12T11:21:01;2.38;;;1.48;;
8171;SDS011;4127;47.908;10.850;2022-09-12T11:40:05;1.00;;;1.00;;
8171;SDS011;4127;47.908;10.850;2022-09-12T11:42:54;1.50;;;1.30;;
8171;SDS011;4127;47.908;10.850;2022-09-12T11:45:30;1.00;;;1.00;;
8171;SDS011;4127;47.908;10.850;2022-09-12T11:48:05;0.93;;;0.93;;
8171;SDS011;4127;47.908;10.850;2022-09-12T11:50:36;1.10;;;1.10;;
8171;SDS011;4127;47.908;10.850;2022-09-12T11:53:14;1.20;;;1.20;;
8171;SDS011;4127;47.908;10.850;2022-09-12T11:55:46;1.05;;;1.05;;
8171;SDS011;4127;47.908;10.850;2022-09-12T11:58:18;1.20;;;1.10;;
8171;SDS011;4127;47.908;10.850;2022-09-12T12:00:49;0.93;;;0.90;;
8171;SDS011;4127;47.908;10.850;2022-09-12T12:03:32;1.10;;;1.10;;
8171;SDS011;4127;47.908;10.850;2022-09-12T12:06:10;1.00;;;1.00;;
8171;SDS011;4127;47.908;10.850;2022-09-12T12:08:41;1.05;;;1.05;;
8171;SDS011;4127;47.908;10.850;2022-09-12T12:11:09;1.00;;;1.00;;
8171;SDS011;4127;47.908;10.850;2022-09-12T12:13:55;1.23;;;1.00;;
8171;SDS011;4127;47.908;10.850;2022-09-12T12:16:36;1.20;;;1.20;;
8171;SDS011;4127;47.908;10.850;2022-09-12T12:19:29;1.17;;;0.90;;
8171;SDS011;4127;47.908;10.850;2022-09-12T12:21:52;1.27;;;1.20;;
8171;SDS011;4127;47.908;10.850;2022-09-12T12:24:22;1.13;;;1.10;;
8171;SDS011;4127;47.908;10.850;2022-09-12T12:29:47;0.90;;;0.90;;
8171;SDS011;4127;47.908;10.850;2022-09-12T12:34:44;0.95;;;0.95;;
8171;SDS011;4127;47.908;10.850;2022-09-12T12:44:58;1.08;;;1.08;;
8171;SDS011;4127;47.908;10.850;2022-09-12T12:50:11;1.10;;;1.10;;
8171;SDS011;4127;47.908;10.850;2022-09-12T12:55:27;1.85;;;1.10;;
8171;SDS011;4127;47.908;10.850;2022-09-12T12:58:26;1.20;;;1.20;;
8171;SDS011;4127;47.908;10.850;2022-09-12T13:06:33;1.35;;;1.20;;
8171;SDS011;4127;47.908;10.850;2022-09-12T13:09:03;1.20;;;1.20;;
8171;SDS011;4127;47.908;10.850;2022-09-12T13:11:36;1.20;;;1.10;;
8171;SDS011;4127;47.908;10.850;2022-09-12T13:14:05;1.35;;;1.27;;
8171;SDS011;4127;47.908;10.850;2022-09-12T13:16:57;1.13;;;1.10;;
8171;SDS011;4127;47.908;10.850;2022-09-12T13:19:27;1.17;;;1.15;;
8171;SDS011;4127;47.908;10.850;2022-09-12T13:21:58;1.23;;;1.20;;
8171;SDS011;4127;47.908;10.850;2022-09-12T13:24:27;1.90;;;1.20;;
8171;SDS011;4127;47.908;10.850;2022-09-12T13:26:53;1.30;;;1.20;;
8171;SDS011;4127;47.908;10.850;2022-09-12T13:29:23;1.45;;;1.35;;
8171;SDS011;4127;47.908;10.850;2022-09-12T13:31:52;1.45;;;1.35;;
8171;SDS011;4127;47.908;10.850;2022-09-12T13:34:30;1.45;;;1.38;;
8171;SDS011;4127;47.908;10.850;2022-09-12T13:37:17;1.20;;;1.10;;
8171;SDS011;4127;47.908;10.850;2022-09-12T13:42:52;1.40;;;1.30;;
8171;SDS011;4127;47.908;10.850;2022-09-12T13:45:40;1.25;;;1.15;;
8171;SDS011;4127;47.908;10.850;2022-09-12T13:48:11;1.42;;;1.15;;
8171;SDS011;4127;47.908;10.850;2022-09-12T13:53:16;1.25;;;1.15;;
8171;SDS011;4127;47.908;10.850;2022-09-12T13:55:46;1.50;;;1.40;;
8171;SDS011;4127;47.908;10.850;2022-09-12T14:03:28;1.10;;;1.00;;
8171;SDS011;4127;47.908;10.850;2022-09-12T14:06:21;1.40;;;1.30;;
8171;SDS011;4127;47.908;10.850;2022-09-12T14:08:50;1.27;;;1.23;;
8171;SDS011;4127;47.908;10.850;2022-09-12T14:11:24;1.20;;;1.10;;
8171;SDS011;4127;47.908;10.850;2022-09-12T14:13:52;1.50;;;1.40;;
8171;SDS011;4127;47.908;10.850;2022-09-12T14:16:21;1.25;;;1.15;;
8171;SDS011;4127;47.908;10.850;2022-09-12T14:18:49;1.10;;;1.10;;
8171;SDS011;4127;47.908;10.850;2022-09-12T14:21:31;1.25;;;1.00;;
8171;SDS011;4127;47.908;10.850;2022-09-12T14:24:01;1.25;;;1.15;;
8171;SDS011;4127;47.908;10.850;2022-09-12T14:26:37;1.02;;;1.02;;
8171;SDS011;4127;47.908;10.850;2022-09-12T14:29:05;1.08;;;1.08;;
8171;SDS011;4127;47.908;10.850;2022-09-12T14:31:34;1.13;;;1.13;;
8171;SDS011;4127;47.908;10.850;2022-09-12T14:34:15;1.10;;;1.00;;
8171;SDS011;4127;47.908;10.850;2022-09-12T14:39:17;2.63;;;1.13;;
8171;SDS011;4127;47.908;10.850;2022-09-12T14:41:48;1.30;;;1.20;;
8171;SDS011;4127;47.908;10.850;2022-09-12T14:44:18;1.42;;;1.33;;
8171;SDS011;4127;47.908;10.850;2022-09-12T14:46:49;1.25;;;1.20;;
8171;SDS011;4127;47.908;10.850;2022-09-12T14:49:26;1.20;;;1.20;;
8171;SDS011;4127;47.908;10.850;2022-09-12T14:52:00;1.23;;;1.13;;
8171;SDS011;4127;47.908;10.850;2022-09-12T14:59:30;0.90;;;0.90;;
8171;SDS011;4127;47.908;10.850;2022-09-12T15:04:54;1.70;;;1.60;;
8171;SDS011;4127;47.908;10.850;2022-09-12T15:07:31;2.10;;;1.90;;
8171;SDS011;4127;47.908;10.850;2022-09-12T15:10:45;1.85;;;1.23;;
8171;SDS011;4127;47.908;10.850;2022-09-12T15:15:35;1.17;;;1.17;;
8171;SDS011;4127;47.908;10.850;2022-09-12T15:18:04;1.17;;;1.00;;
8171;SDS011;4127;47.908;10.850;2022-09-12T15:20:32;1.70;;;1.20;;
8171;SDS011;4127;47.908;10.850;2022-09-12T15:23:02;1.45;;;1.35;;
8171;SDS011;4127;47.908;10.850;2022-09-12T15:25:29;1.10;;;1.10;;
8171;SDS011;4127;47.908;10.850;2022-09-12T15:27:56;1.67;;;1.35;;
8171;SDS011;4127;47.908;10.850;2022-09-12T15:30:22;1.27;;;1.25;;
8171;SDS011;4127;47.908;10.850;2022-09-12T15:32:49;1.30;;;1.20;;
8171;SDS011;4127;47.908;10.850;2022-09-12T15:35:17;1.38;;;1.27;;
8171;SDS011;4127;47.908;10.850;2022-09-12T15:37:47;1.15;;;1.15;;
8171;SDS011;4127;47.908;10.850;2022-09-12T15:40:14;1.10;;;1.10;;
8171;SDS011;4127;47.908;10.850;2022-09-12T15:42:42;1.30;;;1.20;;
8171;SDS011;4127;47.908;10.850;2022-09-12T15:47:46;1.50;;;1.30;;
8171;SDS011;4127;47.908;10.850;2022-09-12T15:50:13;1.25;;;1.15;;
8171;SDS011;4127;47.908;10.850;2022-09-12T15:52:40;1.30;;;1.20;;
8171;SDS011;4127;47.908;10.850;2022-09-12T15:55:17;1.15;;;1.15;;
8171;SDS011;4127;47.908;10.850;2022-09-12T15:57:46;1.23;;;1.23;;
8171;SDS011;4127;47.908;10.850;2022-09-12T16:00:13;1.25;;;1.23;;
8171;SDS011;4127;47.908;10.850;2022-09-12T16:02:43;1.50;;;1.20;;
8171;SDS011;4127;47.908;10.850;2022-09-12T16:05:15;1.40;;;1.30;;
8171;SDS011;4127;47.908;10.850;2022-09-12T16:07:44;1.10;;;1.10;;
8171;SDS011;4127;47.908;10.850;2022-09-12T16:10:16;1.20;;;1.20;;
8171;SDS011;4127;47.908;10.850;2022-09-12T16:12:47;1.10;;;1.10;;
8171;SDS011;4127;47.908;10.850;2022-09-12T16:15:16;1.00;;;1.00;;
8171;SDS011;4127;47.908;10.850;2022-09-12T16:17:48;2.05;;;1.95;;
8171;SDS011;4127;47.908;10.850;2022-09-12T16:20:15;3.53;;;3.10;;
8171;SDS011;4127;47.908;10.850;2022-09-12T16:22:43;2.33;;;2.15;;
8171;SDS011;4127;47.908;10.850;2022-09-12T16:25:10;1.73;;;1.63;;
8171;SDS011;4127;47.908;10.850;2022-09-12T16:27:37;1.50;;;1.40;;
8171;SDS011;4127;47.908;10.850;2022-09-12T16:30:04;1.23;;;1.10;;
8171;SDS011;4127;47.908;10.850;2022-09-12T16:32:32;1.30;;;1.20;;
8171;SDS011;4127;47.908;10.850;2022-09-12T16:34:59;1.20;;;1.20;;
8171;SDS011;4127;47.908;10.850;2022-09-12T16:37:26;1.40;;;1.30;;
8171;SDS011;4127;47.908;10.850;2022-09-12T16:39:53;1.20;;;1.10;;
8171;SDS011;4127;47.908;10.850;2022-09-12T16:42:19;1.23;;;1.10;;
8171;SDS011;4127;47.908;10.850;2022-09-12T16:44:46;1.20;;;1.10;;
8171;SDS011;4127;47.908;10.850;2022-09-12T16:47:13;1.33;;;1.30;;
8171;SDS011;4127;47.908;10.850;2022-09-12T16:49:40;1.30;;;1.20;;
8171;SDS011;4127;47.908;10.850;2022-09-12T16:52:07;1.20;;;1.20;;
8171;SDS011;4127;47.908;10.850;2022-09-12T16:54:34;1.45;;;1.35;;
8171;SDS011;4127;47.908;10.850;2022-09-12T16:57:01;1.20;;;1.20;;
8171;SDS011;4127;47.908;10.850;2022-09-12T16:59:30;1.48;;;1.38;;
8171;SDS011;4127;47.908;10.850;2022-09-12T17:01:57;1.13;;;1.13;;
8171;SDS011;4127;47.908;10.850;2022-09-12T17:04:25;1.05;;;1.05;;
8171;SDS011;4127;47.908;10.850;2022-09-12T17:06:51;1.20;;;1.20;;
8171;SDS011;4127;47.908;10.850;2022-09-12T17:09:18;1.30;;;1.20;;
8171;SDS011;4127;47.908;10.850;2022-09-12T17:11:46;1.48;;;1.15;;
8171;SDS011;4127;47.908;10.850;2022-09-12T17:14:14;1.40;;;1.30;;
8171;SDS011;4127;47.908;10.850;2022-09-12T17:16:42;1.20;;;1.10;;
8171;SDS011;4127;47.908;10.850;2022-09-12T17:19:18;1.40;;;1.30;;
8171;SDS011;4127;47.908;10.850;2022-09-12T17:21:46;1.63;;;1.50;;
8171;SDS011;4127;47.908;10.850;2022-09-12T17:24:15;2.60;;;1.38;;
8171;SDS011;4127;47.908;10.850;2022-09-12T17:26:43;1.43;;;1.30;;
8171;SDS011;4127;47.908;10.850;2022-09-12T17:29:12;1.60;;;1.43;;
8171;SDS011;4127;47.908;10.850;2022-09-12T17:35:27;1.77;;;1.67;;
8171;SDS011;4127;47.908;10.850;2022-09-12T17:37:54;1.27;;;1.20;;
8171;SDS011;4127;47.908;10.850;2022-09-12T18:45:02;3.00;;;1.63;;
8171;SDS011;4127;47.908;10.850;2022-09-12T18:47:29;1.70;;;1.60;;
8171;SDS011;4127;47.908;10.850;2022-09-12T18:49:55;2.00;;;1.80;;
8171;SDS011;4127;47.908;10.850;2022-09-12T18:52:22;1.70;;;1.60;;
8171;SDS011;4127;47.908;10.850;2022-09-12T18:54:49;3.00;;;2.07;;
8171;SDS011;4127;47.908;10.850;2022-09-12T18:57:15;2.77;;;1.97;;
8171;SDS011;4127;47.908;10.850;2022-09-12T18:59:42;2.07;;;1.77;;
8171;SDS011;4127;47.908;10.850;2022-09-12T19:02:12;1.97;;;1.87;;
8171;SDS011;4127;47.908;10.850;2022-09-12T19:04:41;2.63;;;2.10;;
8171;SDS011;4127;47.908;10.850;2022-09-12T19:07:08;1.90;;;1.80;;
8171;SDS011;4127;47.908;10.850;2022-09-12T19:09:35;3.17;;;2.10;;
8171;SDS011;4127;47.908;10.850;2022-09-12T19:12:02;2.10;;;1.90;;
8171;SDS011;4127;47.908;10.850;2022-09-12T19:14:29;2.17;;;1.90;;
8171;SDS011;4127;47.908;10.850;2022-09-12T19:16:56;2.20;;;2.00;;
8171;SDS011;4127;47.908;10.850;2022-09-12T19:19:22;2.30;;;2.20;;
8171;SDS011;4127;47.908;10.850;2022-09-12T19:21:49;2.07;;;1.70;;
8171;SDS011;4127;47.908;10.850;2022-09-12T19:24:16;2.17;;;1.90;;
8171;SDS011;4127;47.908;10.850;2022-09-12T19:26:43;1.80;;;1.70;;
8171;SDS011;4127;47.908;10.850;2022-09-12T19:29:10;2.97;;;1.90;;
8171;SDS011;4127;47.908;10.850;2022-09-12T19:31:39;1.93;;;1.80;;
8171;SDS011;4127;47.908;10.850;2022-09-12T19:34:06;1.90;;;1.80;;
8171;SDS011;4127;47.908;10.850;2022-09-12T19:36:33;1.93;;;1.83;;
8171;SDS011;4127;47.908;10.850;2022-09-12T19:39:16;2.07;;;1.93;;
8171;SDS011;4127;47.908;10.850;2022-09-12T19:41:45;3.17;;;2.17;;
8171;SDS011;4127;47.908;10.850;2022-09-12T19:44:12;1.90;;;1.80;;
8171;SDS011;4127;47.908;10.850;2022-09-12T19:46:39;2.07;;;1.90;;
8171;SDS011;4127;47.908;10.850;2022-09-12T19:49:06;2.03;;;1.70;;
8171;SDS011;4127;47.908;10.850;2022-09-12T19:51:32;2.10;;;1.83;;
8171;SDS011;4127;47.908;10.850;2022-09-12T19:53:59;2.23;;;2.03;;
8171;SDS011;4127;47.908;10.850;2022-09-12T19:56:26;2.60;;;2.17;;
8171;SDS011;4127;47.908;10.850;2022-09-12T19:58:52;2.40;;;2.20;;
8171;SDS011;4127;47.908;10.850;2022-09-12T20:01:22;2.00;;;1.90;;
8171;SDS011;4127;47.908;10.850;2022-09-12T20:03:54;1.80;;;1.70;;
8171;SDS011;4127;47.908;10.850;2022-09-12T20:06:24;1.90;;;1.80;;
8171;SDS011;4127;47.908;10.850;2022-09-12T20:08:51;1.90;;;1.80;;
8171;SDS011;4127;47.908;10.850;2022-09-12T20:11:19;2.90;;;1.80;;
8171;SDS011;4127;47.908;10.850;2022-09-12T20:13:48;1.90;;;1.80;;
8171;SDS011;4127;47.908;10.850;2022-09-12T20:16:19;2.07;;;1.80;;
8171;SDS011;4127;47.908;10.850;2022-09-12T20:18:51;1.83;;;1.70;;
8171;SDS011;4127;47.908;10.850;2022-09-12T20:21:24;3.27;;;1.87;;
8171;SDS011;4127;47.908;10.850;2022-09-12T20:24:14;1.67;;;1.57;;
8171;SDS011;4127;47.908;10.850;2022-09-12T20:26:41;1.97;;;1.70;;
8171;SDS011;4127;47.908;10.850;2022-09-12T20:29:08;3.20;;;1.80;;
8171;SDS011;4127;47.908;10.850;2022-09-12T20:31:36;1.97;;;1.80;;
8171;SDS011;4127;47.908;10.850;2022-09-12T20:34:04;2.07;;;1.90;;
8171;SDS011;4127;47.908;10.850;2022-09-12T20:36:32;7.73;;;1.90;;
8171;SDS011;4127;47.908;10.850;2022-09-12T20:39:00;2.17;;;1.97;;
8171;SDS011;4127;47.908;10.850;2022-09-12T20:41:28;2.10;;;1.90;;
8171;SDS011;4127;47.908;10.850;2022-09-12T20:43:58;2.40;;;1.70;;
8171;SDS011;4127;47.908;10.850;2022-09-12T20:46:26;2.00;;;1.90;;
8171;SDS011;4127;47.908;10.850;2022-09-12T20:48:53;1.87;;;1.77;;
8171;SDS011;4127;47.908;10.850;2022-09-12T20:51:21;1.93;;;1.83;;
8171;SDS011;4127;47.908;10.850;2022-09-12T20:53:53;2.33;;;2.13;;
8171;SDS011;4127;47.908;10.850;2022-09-12T20:56:21;2.97;;;2.00;;
8171;SDS011;4127;47.908;10.850;2022-09-12T20:58:48;2.00;;;1.90;;
8171;SDS011;4127;47.908;10.850;2022-09-12T21:01:17;1.93;;;1.83;;
8171;SDS011;4127;47.908;10.850;2022-09-12T21:03:45;2.37;;;2.17;;
8171;SDS011;4127;47.908;10.850;2022-09-12T21:06:13;2.07;;;1.90;;
8171;SDS011;4127;47.908;10.850;2022-09-12T21:08:44;2.37;;;2.00;;
8171;SDS011;4127;47.908;10.850;2022-09-12T21:11:12;2.10;;;2.00;;
8171;SDS011;4127;47.908;10.850;2022-09-12T21:13:40;2.13;;;2.00;;
8171;SDS011;4127;47.908;10.850;2022-09-12T21:16:10;2.23;;;1.90;;
8171;SDS011;4127;47.908;10.850;2022-09-12T21:18:38;2.10;;;2.00;;
8171;SDS011;4127;47.908;10.850;2022-09-12T21:21:06;2.27;;;1.93;;
8171;SDS011;4127;47.908;10.850;2022-09-12T21:23:34;3.10;;;2.30;;
8171;SDS011;4127;47.908;10.850;2022-09-12T21:26:04;2.47;;;2.27;;
8171;SDS011;4127;47.908;10.850;2022-09-12T21:28:32;3.47;;;2.00;;
8171;SDS011;4127;47.908;10.850;2022-09-12T21:30:59;2.00;;;1.90;;
8171;SDS011;4127;47.908;10.850;2022-09-12T21:33:26;2.70;;;2.50;;
8171;SDS011;4127;47.908;10.850;2022-09-12T21:35:53;2.50;;;2.13;;
8171;SDS011;4127;47.908;10.850;2022-09-12T21:38:20;2.27;;;2.17;;
8171;SDS011;4127;47.908;10.850;2022-09-12T21:40:47;2.37;;;1.80;;
8171;SDS011;4127;47.908;10.850;2022-09-12T21:43:15;2.40;;;2.20;;
8171;SDS011;4127;47.908;10.850;2022-09-12T21:45:45;2.67;;;2.23;;
8171;SDS011;4127;47.908;10.850;2022-09-12T21:48:13;2.30;;;2.10;;
8171;SDS011;4127;47.908;10.850;2022-09-12T21:50:40;2.30;;;2.10;;
8171;SDS011;4127;47.908;10.850;2022-09-12T21:53:07;5.20;;;2.10;;
8171;SDS011;4127;47.908;10.850;2022-09-12T21:55:36;2.30;;;2.10;;
8171;SDS011;4127;47.908;10.850;2022-09-12T21:58:03;2.67;;;2.47;;
8171;SDS011;4127;47.908;10.850;2022-09-12T22:00:30;1.97;;;1.87;;
8171;SDS011;4127;47.908;10.850;2022-09-12T22:02:56;2.30;;;2.10;;
8171;SDS011;4127;47.908;10.850;2022-09-12T22:05:24;2.20;;;2.10;;
8171;SDS011;4127;47.908;10.850;2022-09-12T22:07:52;2.17;;;1.97;;
8171;SDS011;4127;47.908;10.850;2022-09-12T22:10:19;2.07;;;1.93;;
8171;SDS011;4127;47.908;10.850;2022-09-12T22:12:45;2.40;;;2.20;;
8171;SDS011;4127;47.908;10.850;2022-09-12T22:15:12;4.43;;;2.30;;
8171;SDS011;4127;47.908;10.850;2022-09-12T22:17:59;2.20;;;2.00;;
8171;SDS011;4127;47.908;10.850;2022-09-12T22:20:26;2.30;;;2.10;;
8171;SDS011;4127;47.908;10.850;2022-09-12T22:22:53;2.10;;;2.00;;
8171;SDS011;4127;47.908;10.850;2022-09-12T22:25:38;2.50;;;1.90;;
8171;SDS011;4127;47.908;10.850;2022-09-12T22:28:05;2.30;;;2.20;;
8171;SDS011;4127;47.908;10.850;2022-09-12T22:30:32;3.80;;;2.07;;
8171;SDS011;4127;47.908;10.850;2022-09-12T22:32:58;2.30;;;2.20;;
8171;SDS011;4127;47.908;10.850;2022-09-12T22:35:25;4.33;;;2.50;;
8171;SDS011;4127;47.908;10.850;2022-09-12T22:37:52;2.60;;;2.40;;
8171;SDS011;4127;47.908;10.850;2022-09-12T22:40:19;2.60;;;2.40;;
8171;SDS011;4127;47.908;10.850;2022-09-12T22:42:45;2.33;;;2.10;;
8171;SDS011;4127;47.908;10.850;2022-09-12T22:45:12;2.50;;;2.30;;
8171;SDS011;4127;47.908;10.850;2022-09-12T22:47:39;2.30;;;2.10;;
8171;SDS011;4127;47.908;10.850;2022-09-12T22:50:06;2.17;;;2.07;;
8171;SDS011;4127;47.908;10.850;2022-09-12T22:52:33;2.23;;;2.13;;
8171;SDS011;4127;47.908;10.850;2022-09-12T22:55:00;2.50;;;2.30;;
8171;SDS011;4127;47.908;10.850;2022-09-12T22:57:26;2.10;;;1.93;;
8171;SDS011;4127;47.908;10.850;2022-09-12T22:59:53;3.20;;;2.10;;
8171;SDS011;4127;47.908;10.850;2022-09-12T23:02:20;2.27;;;2.10;;
8171;SDS011;4127;47.908;10.850;2022-09-12T23:04:47;2.20;;;1.90;;
8171;SDS011;4127;47.908;10.850;2022-09-12T23:07:13;2.73;;;1.77;;
8171;SDS011;4127;47.908;10.850;2022-09-12T23:09:40;2.33;;;2.13;;
8171;SDS011;4127;47.908;10.850;2022-09-12T23:12:08;2.27;;;2.07;;
8171;SDS011;4127;47.908;10.850;2022-09-12T23:14:35;2.37;;;2.07;;
8171;SDS011;4127;47.908;10.850;2022-09-12T23:17:02;2.73;;;2.20;;
8171;SDS011;4127;47.908;10.850;2022-09-12T23:19:28;2.40;;;2.20;;
8171;SDS011;4127;47.908;10.850;2022-09-12T23:21:56;2.10;;;2.00;;
8171;SDS011;4127;47.908;10.850;2022-09-12T23:24:23;2.67;;;2.00;;
8171;SDS011;4127;47.908;10.850;2022-09-12T23:26:59;2.03;;;1.93;;
8171;SDS011;4127;47.908;10.850;2022-09-12T23:29:30;2.87;;;2.00;;
8171;SDS011;4127;47.908;10.850;2022-09-12T23:31:59;2.10;;;2.00;;
8171;SDS011;4127;47.908;10.850;2022-09-12T23:34:27;2.20;;;2.00;;
8171;SDS011;4127;47.908;10.850;2022-09-12T23:36:55;2.83;;;2.20;;
8171;SDS011;4127;47.908;10.850;2022-09-12T23:39:21;2.30;;;2.10;;
8171;SDS011;4127;47.908;10.850;2022-09-12T23:41:48;2.23;;;2.03;;
8171;SDS011;4127;47.908;10.850;2022-09-12T23:44:18;2.33;;;2.13;;
8171;SDS011;4127;47.908;10.850;2022-09-12T23:46:45;2.40;;;2.20;;
8171;SDS011;4127;47.908;10.850;2022-09-12T23:49:11;2.40;;;2.20;;
8171;SDS011;4127;47.908;10.850;2022-09-12T23:51:38;2.10;;;2.00;;
8171;SDS011;4127;47.908;10.850;2022-09-12T23:54:05;4.50;;;2.37;;
8171;SDS011;4127;47.908;10.850;2022-09-12T23:56:32;2.00;;;1.90;;
8171;SDS011;4127;47.908;10.850;2022-09-12T23:59:14;2.23;;;2.10;;
